Time;durP1;ratioP1;P1;durP2;ratioP2;P2;SDS_P1;SDS_P2;PMS_P1;PMS_P2;Temp;Humidity;BMP_temperature;BMP_pressure;BME280_temperature;BME280_humidity;BME280_pressure;Samples;Min_cycle;Max_cycle;Signal;HPM_P1;HPM_P2
2021/12/25 00:00:04;;;;;;;2.07;1.50;;;5.50;99.90;;;;;;5085353;28;20207;-63
2021/12/25 00:02:33;;;;;;;1.17;1.07;;;5.50;99.90;;;;;;5085219;28;20231;-63
2021/12/25 00:05:00;;;;;;;2.47;1.90;;;5.50;99.90;;;;;;5084764;28;20211;-62
2021/12/25 00:07:27;;;;;;;2.47;1.63;;;5.60;99.90;;;;;;5085276;28;20224;-63
2021/12/25 00:09:55;;;;;;;3.73;2.00;;;5.60;99.90;;;;;;5084021;28;20292;-63
2021/12/25 00:12:22;;;;;;;1.30;1.20;;;5.50;99.90;;;;;;5085319;28;20204;-63
2021/12/25 00:14:49;;;;;;;3.33;1.40;;;5.50;99.90;;;;;;5084842;28;20209;-63
2021/12/25 00:17:15;;;;;;;1.60;1.50;;;5.30;99.90;;;;;;5085076;28;20666;-63
2021/12/25 00:19:43;;;;;;;1.60;0.90;;;5.40;99.90;;;;;;5084901;28;20705;-63
2021/12/25 00:22:10;;;;;;;1.80;1.17;;;5.30;99.90;;;;;;5085117;28;20224;-63
2021/12/25 00:24:42;;;;;;;1.20;1.00;;;5.30;99.90;;;;;;5083228;28;20236;-63
2021/12/25 00:27:33;;;;;;;2.47;1.47;;;5.40;99.90;;;;;;5085390;28;20312;-62
2021/12/25 00:30:11;;;;;;;1.90;1.70;;;5.40;99.90;;;;;;5084698;28;20235;-63
2021/12/25 00:32:48;;;;;;;1.77;0.90;;;5.40;99.90;;;;;;5084898;28;20240;-63
2021/12/25 00:35:16;;;;;;;2.23;1.20;;;5.30;99.90;;;;;;5084824;28;20200;-63
2021/12/25 00:37:43;;;;;;;0.67;0.67;;;5.30;99.90;;;;;;5084142;28;20292;-62
2021/12/25 00:40:11;;;;;;;1.07;0.97;;;5.30;99.90;;;;;;5084564;28;20232;-63
2021/12/25 00:42:39;;;;;;;1.87;1.20;;;5.30;99.90;;;;;;5084942;28;20255;-63
2021/12/25 00:45:06;;;;;;;1.63;1.40;;;5.40;99.90;;;;;;5084493;28;20754;-63
2021/12/25 00:47:33;;;;;;;3.13;1.50;;;5.40;99.90;;;;;;5084963;28;20289;-63
2021/12/25 00:50:00;;;;;;;1.73;1.43;;;5.30;99.90;;;;;;5084273;28;20574;-63
2021/12/25 00:52:27;;;;;;;1.20;1.10;;;5.20;99.90;;;;;;5084780;28;20243;-63
2021/12/25 00:54:54;;;;;;;1.30;1.20;;;5.20;99.90;;;;;;5082654;28;20236;-63
2021/12/25 00:57:21;;;;;;;3.47;1.37;;;5.20;99.90;;;;;;5085034;28;20193;-63
2021/12/25 00:59:49;;;;;;;5.13;1.20;;;5.10;99.90;;;;;;5084470;28;20409;-63
2021/12/25 01:02:16;;;;;;;1.50;1.03;;;5.20;99.90;;;;;;5084422;28;20272;-63
2021/12/25 01:04:43;;;;;;;1.20;1.10;;;5.10;99.90;;;;;;5084466;28;20232;-62
2021/12/25 01:07:09;;;;;;;1.37;1.20;;;5.10;99.90;;;;;;5084668;28;20276;-63
2021/12/25 01:09:36;;;;;;;3.30;1.10;;;5.20;99.90;;;;;;5083378;28;20205;-63
2021/12/25 01:12:04;;;;;;;1.00;1.00;;;5.30;99.90;;;;;;5084524;28;20243;-63
2021/12/25 01:14:36;;;;;;;1.70;1.43;;;5.30;99.90;;;;;;5084320;28;20205;-63
2021/12/25 01:17:25;;;;;;;1.77;1.50;;;5.30;99.90;;;;;;5084300;28;20570;-63
2021/12/25 01:26:11;;;;;;;1.10;1.00;;;5.30;99.90;;;;;;5021624;28;20207;-63
2021/12/25 01:29:15;;;;;;;1.30;1.20;;;5.30;99.90;;;;;;5022324;28;20233;-63
2021/12/25 01:31:48;;;;;;;1.30;1.07;;;5.30;99.90;;;;;;5022321;28;20266;-62
2021/12/25 01:34:54;;;;;;;2.30;1.00;;;5.20;99.90;;;;;;5022024;28;20229;-63
2021/12/25 01:37:35;;;;;;;1.67;1.50;;;5.20;99.90;;;;;;5022003;28;20199;-63
2021/12/25 01:40:18;;;;;;;1.77;1.37;;;5.20;99.90;;;;;;5021040;28;20219;-63
2021/12/25 01:48:16;;;;;;;1.37;1.10;;;5.30;99.90;;;;;;5021976;28;20736;-63
2021/12/25 01:50:44;;;;;;;2.10;1.30;;;5.20;99.90;;;;;;5021986;28;20210;-63
2021/12/25 01:53:11;;;;;;;1.23;1.07;;;5.20;99.90;;;;;;5036859;28;20703;-62
2021/12/25 01:55:38;;;;;;;2.20;1.60;;;5.30;99.90;;;;;;5083644;28;20272;-63
2021/12/25 01:58:06;;;;;;;2.07;1.80;;;5.30;99.90;;;;;;5084035;28;20283;-63
2021/12/25 02:00:36;;;;;;;2.23;1.70;;;5.40;99.90;;;;;;5084038;28;20201;-63
2021/12/25 02:03:05;;;;;;;11.67;6.03;;;5.40;99.90;;;;;;5085828;28;20691;-62
2021/12/25 02:05:32;;;;;;;11.57;6.60;;;5.30;99.90;;;;;;5087172;28;20213;-63
2021/12/25 02:08:00;;;;;;;6.93;2.83;;;5.30;99.90;;;;;;5086375;28;20239;-62
2021/12/25 02:10:27;;;;;;;12.47;3.03;;;5.20;99.90;;;;;;5087337;28;20216;-63
2021/12/25 02:12:54;;;;;;;5.57;2.97;;;5.20;99.90;;;;;;5086858;28;20208;-63
2021/12/25 02:15:24;;;;;;;2.90;2.10;;;5.20;99.90;;;;;;5087357;28;20201;-63
2021/12/25 02:18:04;;;;;;;3.33;2.00;;;5.20;99.90;;;;;;5087391;28;20203;-63
2021/12/25 02:20:41;;;;;;;3.77;1.83;;;5.30;99.90;;;;;;5087331;28;20689;-63
2021/12/25 02:23:14;;;;;;;3.70;2.33;;;5.30;99.90;;;;;;5085815;28;20299;-63
2021/12/25 02:25:42;;;;;;;3.93;2.23;;;5.40;99.90;;;;;;5086480;28;20209;-63
2021/12/25 02:28:11;;;;;;;5.50;2.30;;;5.40;99.90;;;;;;5087324;28;20324;-62
2021/12/25 02:30:38;;;;;;;3.43;2.67;;;5.50;99.90;;;;;;5087133;28;20293;-63
2021/12/25 02:33:05;;;;;;;2.90;2.33;;;5.50;99.90;;;;;;5086791;28;20228;-62
2021/12/25 02:35:33;;;;;;;3.40;2.23;;;5.50;99.90;;;;;;5087246;28;20229;-62
2021/12/25 02:38:00;;;;;;;5.00;2.63;;;5.50;99.90;;;;;;5085545;28;20384;-62
2021/12/25 02:40:27;;;;;;;6.60;3.03;;;5.50;99.90;;;;;;5086845;28;20201;-63
2021/12/25 02:42:54;;;;;;;4.93;3.37;;;5.60;99.90;;;;;;5086492;28;20201;-62
2021/12/25 02:45:23;;;;;;;4.13;2.97;;;5.50;99.90;;;;;;5086874;28;20702;-63
2021/12/25 02:47:53;;;;;;;3.90;3.20;;;5.60;99.90;;;;;;5086533;28;20217;-62
2021/12/25 02:50:25;;;;;;;3.47;2.43;;;5.50;99.90;;;;;;5086767;28;20201;-63
2021/12/25 02:52:54;;;;;;;4.47;2.47;;;5.50;99.90;;;;;;5085770;28;20202;-62
2021/12/25 02:55:21;;;;;;;11.63;3.20;;;5.40;99.90;;;;;;5085845;28;20320;-63
2021/12/25 02:57:52;;;;;;;3.47;2.57;;;5.40;99.90;;;;;;5086694;28;20229;-62
2021/12/25 03:00:20;;;;;;;4.63;2.67;;;5.40;99.90;;;;;;5086573;28;20201;-62
2021/12/25 03:02:47;;;;;;;5.67;2.93;;;5.40;99.90;;;;;;5086293;28;20231;-62
2021/12/25 03:05:14;;;;;;;3.93;2.33;;;5.40;99.90;;;;;;5086422;28;20201;-62
2021/12/25 03:07:41;;;;;;;3.97;2.43;;;5.30;99.90;;;;;;5086134;28;20217;-61
2021/12/25 03:10:12;;;;;;;4.37;2.37;;;5.20;99.90;;;;;;5085796;28;20296;-63
2021/12/25 03:12:49;;;;;;;4.63;2.73;;;5.20;99.90;;;;;;5086095;28;20204;-62
2021/12/25 03:15:26;;;;;;;5.00;2.80;;;5.20;99.90;;;;;;5086378;28;20689;-63
2021/12/25 03:17:53;;;;;;;3.47;2.30;;;5.10;99.90;;;;;;5086347;28;20203;-62
2021/12/25 03:20:20;;;;;;;4.13;2.23;;;5.10;99.90;;;;;;5086346;28;20201;-63
2021/12/25 03:22:47;;;;;;;1.80;1.70;;;5.20;99.90;;;;;;5085302;28;20200;-62
2021/12/25 03:25:17;;;;;;;5.27;2.40;;;5.10;99.90;;;;;;5085126;28;20296;-63
2021/12/25 03:27:46;;;;;;;1.70;1.47;;;5.10;99.90;;;;;;5086157;28;20239;-63
2021/12/25 03:30:15;;;;;;;2.53;1.83;;;5.10;99.90;;;;;;5086326;28;20272;-63
2021/12/25 03:32:42;;;;;;;3.67;2.17;;;5.00;99.90;;;;;;5085809;28;20205;-63
2021/12/25 03:35:09;;;;;;;3.40;2.20;;;5.00;99.90;;;;;;5085754;28;20276;-63
2021/12/25 03:37:36;;;;;;;1.90;1.43;;;5.00;99.90;;;;;;5085695;28;20228;-63
2021/12/25 03:40:04;;;;;;;2.83;1.90;;;5.00;99.90;;;;;;5084765;28;20209;-63
2021/12/25 03:42:32;;;;;;;2.30;1.63;;;5.00;99.90;;;;;;5085876;28;20240;-62
2021/12/25 03:44:59;;;;;;;2.57;1.63;;;5.00;99.90;;;;;;5085421;28;20288;-63
2021/12/25 03:47:30;;;;;;;3.50;1.80;;;5.00;99.90;;;;;;5085581;28;20403;-63
2021/12/25 03:58:16;;;;;;;2.27;1.30;;;4.80;99.90;;;;;;5085507;28;20200;-62
2021/12/25 04:00:44;;;;;;;2.30;1.70;;;4.80;99.90;;;;;;5085755;28;20201;-63
2021/12/25 04:03:19;;;;;;;2.77;2.00;;;4.80;99.90;;;;;;5085227;28;20205;-62
2021/12/25 04:05:47;;;;;;;3.13;1.80;;;4.70;99.90;;;;;;5085413;28;20205;-62
2021/12/25 04:08:18;;;;;;;2.23;1.57;;;4.70;99.90;;;;;;5083903;28;20728;-62
2021/12/25 04:10:50;;;;;;;1.97;1.40;;;4.70;99.90;;;;;;5085032;28;20204;-63
2021/12/25 04:13:19;;;;;;;2.50;1.70;;;4.70;99.90;;;;;;5084857;28;20209;-62
2021/12/25 04:15:47;;;;;;;2.00;1.60;;;4.60;99.90;;;;;;5085080;28;20220;-63
2021/12/25 04:18:14;;;;;;;1.87;1.70;;;4.60;99.90;;;;;;5084997;28;20208;-63
2021/12/25 04:20:41;;;;;;;2.43;1.27;;;4.60;99.90;;;;;;5085091;28;20264;-62
2021/12/25 04:23:12;;;;;;;1.67;1.57;;;4.60;99.90;;;;;;5083817;28;20208;-62
2021/12/25 04:25:39;;;;;;;2.70;1.63;;;4.60;99.90;;;;;;5084179;28;20205;-62
2021/12/25 04:28:13;;;;;;;3.80;2.33;;;4.50;99.90;;;;;;5082514;28;20213;-62
2021/12/25 04:31:00;;;;;;;2.30;1.77;;;4.50;99.90;;;;;;5077960;28;20200;-63
2021/12/25 04:50:16;;;;;;;2.07;1.27;;;4.30;99.90;;;;;;5084591;28;20231;-62
2021/12/25 05:03:47;;;;;;;2.23;1.30;;;4.10;99.90;;;;;;5084312;28;20215;-63
2021/12/25 05:06:14;;;;;;;1.90;1.33;;;4.10;99.90;;;;;;5084565;28;20212;-63
2021/12/25 05:08:41;;;;;;;2.27;1.63;;;4.10;99.90;;;;;;5083317;28;20224;-63
2021/12/25 05:11:08;;;;;;;1.73;1.23;;;4.10;99.90;;;;;;5084513;28;20268;-63
2021/12/25 05:13:35;;;;;;;1.83;1.47;;;4.00;99.90;;;;;;5084297;28;20228;-63
2021/12/25 05:16:03;;;;;;;1.37;1.17;;;3.90;99.90;;;;;;5084124;28;20223;-63
2021/12/25 05:18:30;;;;;;;1.20;1.10;;;3.90;99.90;;;;;;5084430;28;20227;-63
2021/12/25 05:20:58;;;;;;;2.10;1.07;;;3.90;99.90;;;;;;5084466;28;20200;-64
2021/12/25 05:23:25;;;;;;;1.30;1.17;;;3.80;99.90;;;;;;5082639;28;20623;-62
2021/12/25 05:25:52;;;;;;;3.33;1.60;;;3.80;99.90;;;;;;5084455;28;20201;-63
2021/12/25 05:28:24;;;;;;;1.40;1.30;;;3.70;99.90;;;;;;5084487;28;20225;-62
2021/12/25 05:30:51;;;;;;;0.80;0.80;;;3.80;99.90;;;;;;5084461;28;20300;-62
2021/12/25 05:33:18;;;;;;;1.30;1.20;;;3.70;99.90;;;;;;5083921;28;20215;-64
2021/12/25 05:35:45;;;;;;;1.00;1.00;;;3.70;99.90;;;;;;5084002;28;20663;-63
2021/12/25 05:38:15;;;;;;;2.23;1.77;;;3.70;99.90;;;;;;5085333;28;20315;-63
2021/12/25 05:40:42;;;;;;;1.60;1.33;;;3.70;99.90;;;;;;5088062;28;20227;-63
2021/12/25 05:43:09;;;;;;;1.40;1.10;;;3.70;99.90;;;;;;5087828;28;20209;-63
2021/12/25 05:45:36;;;;;;;1.30;1.20;;;3.70;99.90;;;;;;5087925;28;20247;-64
2021/12/25 05:48:02;;;;;;;1.60;1.13;;;3.70;99.90;;;;;;5087886;28;20204;-63
2021/12/25 05:50:29;;;;;;;1.53;1.13;;;3.70;99.90;;;;;;5087948;28;20211;-63
2021/12/25 05:52:56;;;;;;;1.60;0.97;;;3.70;99.90;;;;;;5086971;28;20288;-63
2021/12/25 05:55:25;;;;;;;1.23;1.03;;;3.70;99.90;;;;;;5087023;28;20210;-63
2021/12/25 05:57:53;;;;;;;0.90;0.90;;;3.60;99.90;;;;;;5087852;28;20201;-63
2021/12/25 06:00:21;;;;;;;0.77;0.77;;;3.50;99.90;;;;;;5087823;28;20213;-63
2021/12/25 06:02:49;;;;;;;0.90;0.90;;;3.40;99.90;;;;;;5087308;28;20209;-63
2021/12/25 06:05:16;;;;;;;1.00;0.90;;;3.40;99.90;;;;;;5087542;28;20227;-63
2021/12/25 06:07:43;;;;;;;1.67;1.13;;;3.50;99.90;;;;;;5087033;28;20205;-61
2021/12/25 06:10:11;;;;;;;1.03;0.73;;;3.40;99.90;;;;;;5086928;28;20231;-62
2021/12/25 06:12:42;;;;;;;2.37;0.97;;;3.40;99.90;;;;;;5085260;28;20264;-62
2021/12/25 06:15:11;;;;;;;2.27;1.00;;;3.40;99.90;;;;;;5085641;28;20229;-62
2021/12/25 06:17:37;;;;;;;1.23;0.80;;;3.30;99.90;;;;;;5085721;28;20498;-62
2021/12/25 06:20:06;;;;;;;1.37;1.10;;;3.30;99.90;;;;;;5085594;28;20288;-62
2021/12/25 06:22:33;;;;;;;1.17;1.07;;;3.20;99.90;;;;;;5085278;28;20203;-62
2021/12/25 06:25:00;;;;;;;0.80;0.80;;;3.20;99.90;;;;;;5083798;28;20299;-62
2021/12/25 06:27:26;;;;;;;1.30;1.07;;;3.20;99.90;;;;;;5085424;28;20189;-62
2021/12/25 06:29:55;;;;;;;0.80;0.80;;;3.10;99.90;;;;;;5084763;28;20223;-63
2021/12/25 06:32:22;;;;;;;1.00;0.80;;;3.10;99.90;;;;;;5085569;28;20205;-62
2021/12/25 06:34:49;;;;;;;0.93;0.90;;;3.10;99.90;;;;;;5082496;28;20225;-63
2021/12/25 06:37:17;;;;;;;1.03;0.80;;;2.90;99.90;;;;;;5085214;28;20193;-63
2021/12/25 06:39:44;;;;;;;1.50;1.10;;;2.90;99.90;;;;;;5084099;28;20229;-62
2021/12/25 06:42:11;;;;;;;1.87;1.10;;;2.90;99.90;;;;;;5085606;28;20578;-62
2021/12/25 06:44:38;;;;;;;1.30;1.20;;;3.00;99.90;;;;;;5084906;28;20719;-63
2021/12/25 06:47:06;;;;;;;1.83;1.13;;;3.00;99.90;;;;;;5084907;28;20206;-63
2021/12/25 06:49:33;;;;;;;1.67;1.30;;;3.00;99.90;;;;;;5084639;28;20217;-63
2021/12/25 06:52:01;;;;;;;1.40;1.20;;;3.10;99.90;;;;;;5084715;28;20212;-63
2021/12/25 06:54:28;;;;;;;1.03;0.90;;;3.10;99.90;;;;;;5084092;28;20197;-64
2021/12/25 06:56:55;;;;;;;2.10;1.23;;;3.00;99.90;;;;;;5085900;28;20273;-64
2021/12/25 06:59:22;;;;;;;0.70;0.60;;;3.00;99.90;;;;;;5086393;28;20192;-64
2021/12/25 07:01:50;;;;;;;0.60;0.60;;;2.90;99.90;;;;;;5086669;28;20529;-63
2021/12/25 07:04:18;;;;;;;1.80;1.40;;;2.90;99.90;;;;;;5086536;28;20277;-66
2021/12/25 07:06:45;;;;;;;1.00;0.93;;;2.90;99.90;;;;;;5086517;28;20225;-64
2021/12/25 07:09:12;;;;;;;1.63;0.97;;;2.90;99.90;;;;;;5078254;28;20268;-64
2021/12/25 07:11:39;;;;;;;1.50;1.40;;;2.80;99.90;;;;;;5066541;28;20232;-63
2021/12/25 07:14:09;;;;;;;1.13;0.93;;;2.80;99.90;;;;;;5066373;28;20237;-64
2021/12/25 07:16:36;;;;;;;1.30;1.20;;;2.80;99.90;;;;;;5066358;28;20217;-64
2021/12/25 07:19:03;;;;;;;1.43;1.07;;;2.70;99.90;;;;;;5066237;28;20288;-64
2021/12/25 07:21:31;;;;;;;1.23;1.00;;;2.70;99.90;;;;;;5066146;28;20269;-64
2021/12/25 07:23:58;;;;;;;1.73;1.20;;;2.60;99.90;;;;;;5064366;28;20205;-63
2021/12/25 07:26:26;;;;;;;1.33;1.10;;;2.60;99.90;;;;;;5066360;28;20256;-63
2021/12/25 07:28:53;;;;;;;1.27;0.90;;;2.60;99.90;;;;;;5066622;28;20222;-62
2021/12/25 07:31:21;;;;;;;1.77;1.00;;;2.70;99.90;;;;;;5085499;28;20719;-62
2021/12/25 07:33:48;;;;;;;1.30;0.63;;;2.70;99.90;;;;;;5085155;28;20256;-62
2021/12/25 07:36:15;;;;;;;0.87;0.87;;;2.60;99.90;;;;;;5082861;28;20565;-62
2021/12/25 07:38:43;;;;;;;1.13;1.03;;;2.60;99.90;;;;;;5084173;28;20221;-62
2021/12/25 07:41:10;;;;;;;0.80;0.80;;;2.50;99.90;;;;;;5085443;28;20296;-63
2021/12/25 07:43:37;;;;;;;1.07;0.97;;;2.40;99.90;;;;;;5085039;28;20253;-63
2021/12/25 07:46:05;;;;;;;0.90;0.77;;;2.40;99.90;;;;;;5085420;28;20204;-63
2021/12/25 07:48:33;;;;;;;1.03;0.70;;;2.40;99.90;;;;;;5085193;28;20283;-63
2021/12/25 07:51:02;;;;;;;1.27;0.80;;;2.30;99.90;;;;;;5085271;28;20197;-62
2021/12/25 07:53:31;;;;;;;2.13;1.30;;;2.40;99.90;;;;;;5083170;28;20197;-62
2021/12/25 07:55:59;;;;;;;0.83;0.83;;;2.30;99.90;;;;;;5085075;28;20212;-63
2021/12/25 07:58:26;;;;;;;2.07;1.10;;;2.30;99.90;;;;;;5085100;28;20189;-62
2021/12/25 08:00:54;;;;;;;0.77;0.70;;;2.30;99.90;;;;;;5080358;28;20197;-63
2021/12/25 08:03:21;;;;;;;0.70;0.70;;;2.30;99.90;;;;;;5083370;28;20319;-62
2021/12/25 08:05:48;;;;;;;1.60;1.33;;;2.20;99.90;;;;;;5083601;28;20232;-63
2021/12/25 08:08:15;;;;;;;1.93;1.13;;;2.20;99.90;;;;;;5080678;28;20193;-62
2021/12/25 08:10:43;;;;;;;2.00;1.57;;;2.20;99.90;;;;;;5083478;28;20280;-63
2021/12/25 08:13:13;;;;;;;1.87;1.60;;;2.20;99.90;;;;;;5083364;28;20205;-63
2021/12/25 08:15:41;;;;;;;1.43;1.07;;;2.30;99.90;;;;;;5083676;28;20197;-63
2021/12/25 08:18:09;;;;;;;1.20;1.03;;;2.30;99.90;;;;;;5083585;28;20233;-63
2021/12/25 08:20:37;;;;;;;1.10;1.00;;;2.30;99.90;;;;;;5081449;28;20189;-62
2021/12/25 08:23:04;;;;;;;1.13;0.97;;;2.20;99.90;;;;;;5082602;28;20212;-62
2021/12/25 08:25:31;;;;;;;0.63;0.63;;;2.20;99.90;;;;;;5082101;28;20223;-63
2021/12/25 08:27:59;;;;;;;1.27;0.93;;;2.10;99.90;;;;;;5083201;28;20197;-62
2021/12/25 08:30:28;;;;;;;0.87;0.80;;;2.10;99.90;;;;;;5083273;28;20235;-62
2021/12/25 08:32:57;;;;;;;1.10;1.10;;;2.00;99.90;;;;;;5082821;28;20224;-63
2021/12/25 08:35:26;;;;;;;1.10;0.90;;;1.80;99.90;;;;;;5083095;28;20277;-63
2021/12/25 08:37:54;;;;;;;1.10;1.00;;;1.80;99.90;;;;;;5081771;28;20232;-62
2021/12/25 08:40:22;;;;;;;2.00;1.17;;;1.70;99.90;;;;;;5082692;28;20289;-63
2021/12/25 08:42:53;;;;;;;1.03;0.87;;;1.50;99.90;;;;;;5082644;28;20197;-62
2021/12/25 08:48:09;;;;;;;1.77;1.10;;;1.50;99.90;;;;;;5081849;28;20203;-62
2021/12/25 08:50:36;;;;;;;1.47;1.07;;;1.60;99.90;;;;;;5080709;28;20243;-62
2021/12/25 08:53:03;;;;;;;1.00;0.90;;;1.60;99.90;;;;;;5083605;28;20209;-63
2021/12/25 08:55:30;;;;;;;1.83;1.53;;;1.60;99.90;;;;;;5083544;28;20364;-65
2021/12/25 08:57:57;;;;;;;2.40;1.00;;;1.50;99.90;;;;;;5084368;28;20283;-63
2021/12/25 09:00:24;;;;;;;1.50;0.90;;;1.40;99.90;;;;;;5084557;28;20224;-66
2021/12/25 09:02:51;;;;;;;1.60;0.87;;;1.40;99.90;;;;;;5083811;28;20243;-64
2021/12/25 09:05:20;;;;;;;1.23;1.10;;;1.30;99.90;;;;;;5084362;28;20236;-64
2021/12/25 09:07:47;;;;;;;2.40;1.20;;;1.30;99.90;;;;;;5084015;28;20208;-63
2021/12/25 09:10:13;;;;;;;3.47;1.77;;;1.30;99.90;;;;;;5084100;28;20221;-64
2021/12/25 09:12:42;;;;;;;1.17;1.00;;;1.40;99.90;;;;;;5087533;28;20584;-64
2021/12/25 09:15:10;;;;;;;2.23;1.20;;;1.50;99.90;;;;;;5088638;28;20212;-63
2021/12/25 09:17:37;;;;;;;3.37;1.67;;;1.50;99.90;;;;;;5088443;28;20205;-64
2021/12/25 09:20:06;;;;;;;2.87;1.47;;;1.50;99.90;;;;;;5088528;28;20279;-70
2021/12/25 09:22:35;;;;;;;1.60;1.27;;;1.60;99.90;;;;;;5085502;28;20229;-64
2021/12/25 09:25:02;;;;;;;1.93;1.47;;;1.50;99.90;;;;;;5086681;28;20264;-65
2021/12/25 09:27:29;;;;;;;2.40;1.50;;;1.40;99.90;;;;;;5088231;28;20268;-64
2021/12/25 09:29:56;;;;;;;1.20;1.10;;;1.40;99.90;;;;;;5087932;28;20240;-64
2021/12/25 09:32:23;;;;;;;1.57;1.00;;;1.40;99.90;;;;;;5087950;28;20225;-63
2021/12/25 09:34:49;;;;;;;1.40;1.20;;;1.50;99.90;;;;;;5088094;28;20208;-63
2021/12/25 09:37:16;;;;;;;1.17;0.90;;;1.50;99.90;;;;;;5087748;28;20244;-64
2021/12/25 09:39:45;;;;;;;0.80;0.80;;;1.40;99.90;;;;;;5086361;28;20260;-64
2021/12/25 09:42:12;;;;;;;1.80;1.13;;;1.30;99.90;;;;;;5085294;28;20197;-65
2021/12/25 09:44:38;;;;;;;1.70;1.27;;;1.20;99.90;;;;;;5087287;28;20203;-64
2021/12/25 09:47:06;;;;;;;1.80;1.00;;;1.20;99.90;;;;;;5087042;28;20269;-64
2021/12/25 09:49:32;;;;;;;2.47;1.23;;;1.30;99.90;;;;;;5084974;28;20217;-65
2021/12/25 09:51:59;;;;;;;1.37;1.00;;;1.30;99.90;;;;;;5087259;28;20205;-63
2021/12/25 09:54:27;;;;;;;1.20;1.10;;;1.40;99.90;;;;;;5085800;28;20654;-63
2021/12/25 09:56:58;;;;;;;1.70;1.23;;;1.40;99.90;;;;;;5087169;28;20197;-63
2021/12/25 09:59:25;;;;;;;1.03;0.90;;;1.40;99.90;;;;;;5087471;28;20197;-63
2021/12/25 10:01:54;;;;;;;0.77;0.77;;;1.30;99.90;;;;;;5087160;28;20261;-63
2021/12/25 10:04:35;;;;;;;2.47;1.20;;;1.20;99.90;;;;;;5087028;28;20535;-61
2021/12/25 10:07:16;;;;;;;2.00;1.17;;;1.10;99.90;;;;;;5087503;28;20299;-63
2021/12/25 10:09:42;;;;;;;1.83;1.23;;;1.00;99.90;;;;;;5086070;28;20217;-63
2021/12/25 10:12:13;;;;;;;1.07;0.97;;;1.00;99.90;;;;;;5087209;28;20264;-62
2021/12/25 10:14:42;;;;;;;0.80;0.80;;;1.00;99.90;;;;;;5086572;28;20439;-62
2021/12/25 10:17:18;;;;;;;1.77;1.07;;;1.00;99.90;;;;;;5085073;28;20483;-62
2021/12/25 10:20:00;;;;;;;1.50;1.40;;;1.00;99.90;;;;;;5086645;28;20223;-62
2021/12/25 10:22:28;;;;;;;0.77;0.67;;;1.00;99.90;;;;;;5084401;28;20197;-63
2021/12/25 10:25:07;;;;;;;0.97;0.90;;;1.00;99.90;;;;;;5085092;28;20453;-63
2021/12/25 10:27:35;;;;;;;1.03;0.70;;;1.00;99.90;;;;;;5084593;28;20431;-62
2021/12/25 10:30:07;;;;;;;1.67;1.10;;;1.00;99.90;;;;;;5086579;28;20475;-63
2021/12/25 10:32:39;;;;;;;1.17;0.60;;;0.90;99.90;;;;;;5086315;28;20225;-63
2021/12/25 10:35:14;;;;;;;1.40;1.00;;;0.90;99.90;;;;;;5087000;28;20451;-63
2021/12/25 10:37:42;;;;;;;0.60;0.57;;;0.90;99.90;;;;;;5086457;28;20228;-62
2021/12/25 10:40:24;;;;;;;1.50;1.03;;;0.90;99.90;;;;;;5086393;28;20453;-63
2021/12/25 10:42:53;;;;;;;1.30;1.17;;;0.80;99.90;;;;;;5086897;28;20447;-62
2021/12/25 10:45:24;;;;;;;1.67;0.90;;;0.80;99.90;;;;;;5087078;28;20451;-63
2021/12/25 10:48:05;;;;;;;1.00;0.90;;;0.70;99.90;;;;;;5086474;28;21166;-62
2021/12/25 10:50:39;;;;;;;0.97;0.67;;;0.70;99.90;;;;;;5086103;28;20213;-63
2021/12/25 10:53:26;;;;;;;0.53;0.53;;;0.80;99.90;;;;;;5085831;28;20637;-62
2021/12/25 10:55:54;;;;;;;1.00;1.00;;;0.80;99.90;;;;;;5086662;28;20363;-62
2021/12/25 10:58:25;;;;;;;0.93;0.93;;;0.80;99.90;;;;;;5086724;28;20269;-62
2021/12/25 11:00:55;;;;;;;0.73;0.67;;;0.70;99.90;;;;;;5086249;28;20268;-62
2021/12/25 11:03:32;;;;;;;0.70;0.70;;;0.60;99.90;;;;;;5086605;28;20219;-62
2021/12/25 11:06:05;;;;;;;0.83;0.83;;;0.50;99.90;;;;;;5086364;28;20227;-63
2021/12/25 11:08:33;;;;;;;1.07;0.90;;;0.50;99.90;;;;;;5082894;28;20511;-62
2021/12/25 11:11:02;;;;;;;1.47;1.07;;;0.40;99.90;;;;;;5085771;28;20272;-63
2021/12/25 11:13:32;;;;;;;0.70;0.70;;;0.30;99.90;;;;;;5085510;28;20503;-62
2021/12/25 11:16:04;;;;;;;2.63;1.00;;;0.30;99.90;;;;;;5085725;28;20443;-62
2021/12/25 11:18:32;;;;;;;0.87;0.87;;;0.20;99.90;;;;;;5086300;28;20515;-63
2021/12/25 11:21:00;;;;;;;0.77;0.77;;;0.20;99.90;;;;;;5085838;28;20466;-64
2021/12/25 11:23:28;;;;;;;1.70;1.10;;;0.20;99.90;;;;;;5083971;28;20509;-63
2021/12/25 11:25:55;;;;;;;1.90;1.40;;;0.10;99.90;;;;;;5085527;28;20440;-63
2021/12/25 11:28:22;;;;;;;0.80;0.80;;;0.10;99.90;;;;;;5086078;28;20446;-63
2021/12/25 11:30:52;;;;;;;0.77;0.73;;;0.10;99.90;;;;;;5086086;28;20779;-63
2021/12/25 11:33:20;;;;;;;0.80;0.80;;;0.20;99.90;;;;;;5085126;28;20790;-63
2021/12/25 11:35:47;;;;;;;1.10;1.00;;;0.30;99.90;;;;;;5084723;28;20427;-63
2021/12/25 11:38:14;;;;;;;4.57;2.50;;;0.30;99.90;;;;;;5084345;28;20542;-63
2021/12/25 11:40:48;;;;;;;1.37;1.20;;;0.20;99.90;;;;;;5085007;28;20432;-63
2021/12/25 11:43:16;;;;;;;1.70;1.17;;;0.10;99.90;;;;;;5076369;28;20490;-63
2021/12/25 11:45:51;;;;;;;0.80;0.80;;;0.10;99.90;;;;;;5064931;28;21072;-63
2021/12/25 11:48:20;;;;;;;2.83;1.30;;;0.10;99.90;;;;;;5064324;28;20432;-63
2021/12/25 11:50:49;;;;;;;1.27;1.10;;;0.10;99.90;;;;;;5074577;28;20586;-63
2021/12/25 11:53:21;;;;;;;0.90;0.90;;;0.20;99.90;;;;;;5084057;28;20451;-63
2021/12/25 11:58:49;;;;;;;0.60;0.60;;;0.20;99.90;;;;;;5084605;28;20189;-63
2021/12/25 12:01:28;;;;;;;1.70;0.87;;;0.30;99.90;;;;;;5085234;28;20450;-64
2021/12/25 12:03:56;;;;;;;0.80;0.73;;;0.30;99.90;;;;;;5084759;28;20505;-62
2021/12/25 12:07:03;;;;;;;0.83;0.83;;;0.30;99.90;;;;;;5084907;28;20197;-63
2021/12/25 12:09:34;;;;;;;1.50;0.90;;;0.20;99.90;;;;;;5079776;28;20455;-62
2021/12/25 12:12:19;;;;;;;1.03;1.03;;;0.20;99.90;;;;;;5085004;28;20551;-63
2021/12/25 12:15:06;;;;;;;1.23;1.00;;;0.20;99.90;;;;;;5084761;28;20431;-63
2021/12/25 12:17:36;;;;;;;0.90;0.90;;;0.20;99.90;;;;;;5082800;28;20440;-62
2021/12/25 12:20:06;;;;;;;2.50;1.23;;;0.20;99.90;;;;;;5084829;28;20434;-63
2021/12/25 12:23:18;;;;;;;0.80;0.80;;;0.30;99.90;;;;;;5084742;28;20550;-62
2021/12/25 12:28:44;;;;;;;0.97;0.77;;;0.20;99.90;;;;;;5071393;28;20470;-63
2021/12/25 12:31:40;;;;;;;1.33;1.00;;;0.10;99.90;;;;;;5070370;28;21017;-63
2021/12/25 12:34:35;;;;;;;1.13;1.03;;;0.00;99.90;;;;;;5076539;28;20500;-64
2021/12/25 12:37:24;;;;;;;1.20;1.10;;;0.00;99.90;;;;;;5081704;28;20547;-63
2021/12/25 12:40:20;;;;;;;1.23;0.93;;;0.00;99.90;;;;;;5074585;28;20983;-64
2021/12/25 12:42:51;;;;;;;0.80;0.80;;;0.00;99.90;;;;;;5073573;28;21033;-63
2021/12/25 12:45:22;;;;;;;1.07;0.97;;;0.00;99.90;;;;;;5079292;28;20439;-64
2021/12/25 12:48:17;;;;;;;0.63;0.63;;;0.00;99.90;;;;;;5077985;28;20456;-64
2021/12/25 12:50:48;;;;;;;1.43;1.00;;;-0.10;99.90;;;;;;5077437;28;20557;-63
2021/12/25 12:53:16;;;;;;;1.57;1.00;;;-0.20;99.90;;;;;;5076939;28;20486;-63
2021/12/25 12:55:45;;;;;;;1.33;1.00;;;-0.20;99.90;;;;;;5075066;28;20530;-63
2021/12/25 12:58:15;;;;;;;1.43;1.00;;;-0.20;99.90;;;;;;5075497;28;20482;-63
2021/12/25 13:00:45;;;;;;;0.97;0.97;;;-0.20;99.90;;;;;;5074197;28;20504;-63
2021/12/25 13:03:12;;;;;;;0.80;0.80;;;-0.20;99.90;;;;;;5079742;28;20524;-63
2021/12/25 13:05:42;;;;;;;1.37;1.27;;;-0.20;99.90;;;;;;5078599;28;20558;-63
2021/12/25 13:08:19;;;;;;;1.00;0.90;;;-0.20;99.90;;;;;;5075817;28;20444;-63
2021/12/25 13:10:51;;;;;;;0.73;0.73;;;-0.20;99.90;;;;;;5072539;28;20501;-63
2021/12/25 13:13:22;;;;;;;0.90;0.70;;;-0.30;99.90;;;;;;5075847;28;20489;-63
2021/12/25 13:15:55;;;;;;;0.97;0.83;;;-0.30;99.90;;;;;;5076559;28;20440;-63
2021/12/25 13:18:28;;;;;;;1.30;1.20;;;-0.20;99.90;;;;;;5068885;28;20965;-64
2021/12/25 13:20:56;;;;;;;1.10;1.00;;;-0.20;99.90;;;;;;5064464;28;20459;-64
2021/12/25 13:23:27;;;;;;;1.33;1.00;;;-0.30;99.90;;;;;;5062588;28;20507;-63
2021/12/25 13:25:57;;;;;;;3.90;1.10;;;-0.30;99.90;;;;;;5073331;28;20897;-63
2021/12/25 13:28:26;;;;;;;3.03;0.87;;;-0.30;99.90;;;;;;5084380;28;20904;-64
2021/12/25 13:30:55;;;;;;;0.93;0.80;;;-0.40;99.90;;;;;;5084560;28;20487;-63
2021/12/25 13:33:24;;;;;;;1.37;0.90;;;-0.40;99.90;;;;;;5084367;28;20452;-64
2021/12/25 13:36:04;;;;;;;1.10;1.03;;;-0.40;99.90;;;;;;5081575;28;20497;-63
2021/12/25 13:38:45;;;;;;;0.67;0.67;;;-0.40;99.90;;;;;;5067729;28;20471;-63
2021/12/25 13:41:13;;;;;;;0.80;0.80;;;-0.40;99.90;;;;;;5063849;28;20528;-63
2021/12/25 13:43:39;;;;;;;1.20;0.90;;;-0.40;99.90;;;;;;5080716;28;20465;-63
2021/12/25 13:46:06;;;;;;;0.83;0.83;;;-0.50;99.90;;;;;;5071427;28;20459;-61
2021/12/25 13:48:37;;;;;;;1.33;1.00;;;-0.50;99.90;;;;;;5078677;28;20483;-63
2021/12/25 13:51:05;;;;;;;1.27;1.00;;;-0.50;99.90;;;;;;5065672;28;20574;-63
2021/12/25 13:53:32;;;;;;;0.87;0.70;;;-0.40;99.90;;;;;;5062876;28;20449;-63
2021/12/25 13:56:09;;;;;;;1.30;1.20;;;-0.40;99.90;;;;;;5063328;28;20452;-62
2021/12/25 13:58:35;;;;;;;1.67;1.13;;;-0.50;99.90;;;;;;5065642;28;20446;-63
2021/12/25 14:01:03;;;;;;;1.17;0.93;;;-0.50;99.90;;;;;;5068179;28;20474;-63
2021/12/25 14:03:30;;;;;;;0.73;0.70;;;-0.60;99.90;;;;;;5067496;28;20539;-63
2021/12/25 14:05:58;;;;;;;1.27;1.17;;;-0.60;99.90;;;;;;5067701;28;20456;-63